createdAt,value
2022-11-15T00:00:28.473Z,11.50
2022-11-15T00:01:28.473Z,10.90
2022-11-15T00:02:28.479Z,11.00
2022-11-15T00:03:28.672Z,11.40
2022-11-15T00:04:31.156Z,11.20
2022-11-15T00:05:28.422Z,11.10
2022-11-15T00:06:28.393Z,11.70
2022-11-15T00:07:53.931Z,11.60
2022-11-15T00:08:29.373Z,10.90
2022-11-15T00:09:28.383Z,11.60
2022-11-15T00:10:28.345Z,11.40
2022-11-15T00:11:28.351Z,11.10
2022-11-15T00:12:28.322Z,11.00
2022-11-15T00:13:28.519Z,11.30
2022-11-15T00:14:28.316Z,11.40
2022-11-15T00:15:28.309Z,10.90
2022-11-15T00:16:28.282Z,10.50
2022-11-15T00:17:28.813Z,11.70
2022-11-15T00:18:28.265Z,11.20
2022-11-15T00:19:28.265Z,10.80
2022-11-15T00:20:28.244Z,10.60
2022-11-15T00:21:28.242Z,10.50
2022-11-15T00:22:28.215Z,11.50
2022-11-15T00:23:28.323Z,12.00
2022-11-15T00:24:28.202Z,12.30
2022-11-15T00:25:28.204Z,11.40
2022-11-15T00:26:28.172Z,13.90
2022-11-15T00:27:28.191Z,12.80
2022-11-15T00:28:28.141Z,13.70
2022-11-15T00:29:28.156Z,13.50
2022-11-15T00:30:28.136Z,13.50
2022-11-15T00:31:28.134Z,14.10
2022-11-15T00:32:28.092Z,13.30
2022-11-15T00:33:28.262Z,14.00
2022-11-15T00:34:28.082Z,14.20
2022-11-15T00:35:28.082Z,13.40
2022-11-15T00:36:28.061Z,13.50
2022-11-15T00:37:28.075Z,13.70
2022-11-15T00:38:28.032Z,13.20
2022-11-15T00:39:28.032Z,12.90
2022-11-15T00:40:28.011Z,12.50
2022-11-15T00:41:28.022Z,12.30
2022-11-15T00:42:27.992Z,11.70
2022-11-15T00:43:28.165Z,10.60
2022-11-15T00:44:27.964Z,10.80
2022-11-15T00:45:27.986Z,10.20
2022-11-15T00:46:27.951Z,10.50
2022-11-15T00:47:27.977Z,9.80
2022-11-15T00:48:27.922Z,9.90
2022-11-15T00:49:27.928Z,10.10
2022-11-15T00:50:27.898Z,9.70
2022-11-15T00:51:27.901Z,9.90
2022-11-15T00:52:27.873Z,9.80
2022-11-15T00:53:27.873Z,9.20
2022-11-15T00:54:27.861Z,8.80
2022-11-15T00:55:27.851Z,8.60
2022-11-15T00:56:27.821Z,8.80
2022-11-15T00:57:28.662Z,8.30
2022-11-15T00:58:27.921Z,9.10
2022-11-15T00:59:27.810Z,9.00
2022-11-15T01:00:27.780Z,8.40
2022-11-15T01:01:27.845Z,8.50
2022-11-15T01:02:27.770Z,8.90
2022-11-15T01:03:27.918Z,8.10
2022-11-15T01:04:27.732Z,8.60
2022-11-15T01:05:27.746Z,7.80
2022-11-15T01:06:27.710Z,8.30
2022-11-15T01:07:27.781Z,8.10
2022-11-15T01:08:27.691Z,8.20
2022-11-15T01:09:27.692Z,8.00
2022-11-15T01:10:27.660Z,7.30
2022-11-15T01:11:27.671Z,7.70
2022-11-15T01:12:27.640Z,7.10
2022-11-15T01:13:27.753Z,7.40
2022-11-15T01:14:27.628Z,7.50
2022-11-15T01:15:27.619Z,7.70
2022-11-15T01:16:27.601Z,7.30
2022-11-15T01:17:27.613Z,6.80
2022-11-15T01:18:28.439Z,6.30
2022-11-15T01:19:28.342Z,6.90
2022-11-15T01:20:27.571Z,6.90
2022-11-15T01:21:27.566Z,6.90
2022-11-15T01:22:27.530Z,6.40
2022-11-15T01:23:27.529Z,6.90
2022-11-15T01:24:27.512Z,6.60
2022-11-15T01:25:27.499Z,6.80
2022-11-15T01:26:27.484Z,6.80
2022-11-15T01:27:27.489Z,6.50
2022-11-15T01:28:27.458Z,6.30
2022-11-15T01:29:27.478Z,6.50
2022-11-15T01:30:27.440Z,6.50
2022-11-15T01:31:27.440Z,6.60
2022-11-15T01:32:27.419Z,6.00
2022-11-15T01:33:27.453Z,6.80
2022-11-15T01:34:27.399Z,7.00
2022-11-15T01:35:27.545Z,6.50
2022-11-15T01:36:27.359Z,6.60
2022-11-15T01:37:27.369Z,7.20
2022-11-15T01:38:27.660Z,6.60
2022-11-15T01:39:27.375Z,8.00
2022-11-15T01:40:27.321Z,6.80
2022-11-15T01:41:27.358Z,6.80
2022-11-15T01:42:27.298Z,7.20
2022-11-15T01:43:27.325Z,6.90
2022-11-15T01:44:27.269Z,7.30
2022-11-15T01:45:27.279Z,6.80
2022-11-15T01:46:27.308Z,6.80
2022-11-15T01:47:27.258Z,7.50
2022-11-15T01:48:27.229Z,6.70
2022-11-15T01:49:27.226Z,6.70
2022-11-15T01:50:27.210Z,6.40
2022-11-15T01:51:27.208Z,6.60
2022-11-15T01:52:27.177Z,6.40
2022-11-15T01:53:27.178Z,6.80
2022-11-15T01:54:27.157Z,7.40
2022-11-15T01:55:27.169Z,6.60
2022-11-15T01:56:27.137Z,7.10
2022-11-15T01:57:27.137Z,7.30
2022-11-15T01:58:27.109Z,7.30
2022-11-15T01:59:27.131Z,7.40
2022-11-15T02:00:27.090Z,8.00
2022-11-15T02:01:27.206Z,8.20
2022-11-15T02:02:27.068Z,7.60
2022-11-15T02:03:27.080Z,8.40
2022-11-15T02:04:27.038Z,7.90
2022-11-15T02:05:27.039Z,8.40
2022-11-15T02:06:27.027Z,8.40
2022-11-15T02:07:27.080Z,8.00
2022-11-15T02:08:27.000Z,8.00
2022-11-15T02:09:27.064Z,9.20
2022-11-15T02:10:26.967Z,7.90
2022-11-15T02:11:26.980Z,8.20
2022-11-15T02:12:26.973Z,8.20
2022-11-15T02:13:26.950Z,8.00
2022-11-15T02:14:26.927Z,8.00
2022-11-15T02:15:26.928Z,7.90
2022-11-15T02:16:26.901Z,8.20
2022-11-15T02:17:26.926Z,8.00
2022-11-15T02:18:26.877Z,8.20
2022-11-15T02:19:27.830Z,8.30
2022-11-15T02:20:27.737Z,8.30
2022-11-15T02:21:26.899Z,8.20
2022-11-15T02:22:26.847Z,8.60
2022-11-15T02:23:26.836Z,8.50
2022-11-15T02:24:26.809Z,8.10
2022-11-15T02:25:26.817Z,8.40
2022-11-15T02:26:26.787Z,8.00
2022-11-15T02:27:26.796Z,8.30
2022-11-15T02:28:26.767Z,8.30
2022-11-15T02:29:26.769Z,8.60
2022-11-15T02:30:26.989Z,8.50
2022-11-15T02:31:26.745Z,8.10
2022-11-15T02:32:26.719Z,9.10
2022-11-15T02:33:26.768Z,8.60
2022-11-15T02:34:26.697Z,8.20
2022-11-15T02:35:26.708Z,8.80
2022-11-15T02:36:26.676Z,9.00
2022-11-15T02:37:26.688Z,8.20
2022-11-15T02:38:26.657Z,8.30
2022-11-15T02:39:26.956Z,8.40
2022-11-15T02:40:26.957Z,9.30
2022-11-15T02:41:27.067Z,9.60
2022-11-15T02:42:26.595Z,8.60
2022-11-15T02:43:26.606Z,9.00
2022-11-15T02:44:26.593Z,9.20
2022-11-15T02:45:26.586Z,8.80
2022-11-15T02:46:26.559Z,8.80
2022-11-15T02:47:26.570Z,9.70
2022-11-15T02:48:26.527Z,8.40
2022-11-15T02:49:26.536Z,9.50
2022-11-15T02:50:26.516Z,9.00
2022-11-15T02:51:26.507Z,9.60
2022-11-15T02:52:26.486Z,9.40
2022-11-15T02:53:26.485Z,8.70
2022-11-15T02:54:26.475Z,9.60
2022-11-15T02:55:26.467Z,8.80
2022-11-15T02:56:26.436Z,9.10
2022-11-15T02:57:26.456Z,9.00
2022-11-15T02:58:26.426Z,9.30
2022-11-15T02:59:26.424Z,9.00
2022-11-15T03:00:26.406Z,8.50
2022-11-15T03:01:26.438Z,8.50
2022-11-15T03:02:26.378Z,8.70
2022-11-15T03:03:26.373Z,9.20
2022-11-15T03:04:26.344Z,8.10
2022-11-15T03:05:26.367Z,7.40
2022-11-15T03:06:26.325Z,8.00
2022-11-15T03:07:26.401Z,8.30
2022-11-15T03:08:26.304Z,8.20
2022-11-15T03:09:26.305Z,8.00
2022-11-15T03:10:26.406Z,7.80
2022-11-15T03:11:26.285Z,8.60
2022-11-15T03:12:26.256Z,8.00
2022-11-15T03:13:26.255Z,8.00
2022-11-15T03:14:26.236Z,7.50
2022-11-15T03:15:26.237Z,7.60
2022-11-15T03:16:26.214Z,7.50
2022-11-15T03:17:26.229Z,8.10
2022-11-15T03:18:26.354Z,7.10
2022-11-15T03:19:26.214Z,7.20
2022-11-15T03:20:26.174Z,6.90
2022-11-15T03:21:26.874Z,7.20
2022-11-15T03:22:26.194Z,7.30
2022-11-15T03:23:26.143Z,6.80
2022-11-15T03:24:26.384Z,7.60
2022-11-15T03:25:26.105Z,7.40
2022-11-15T03:26:26.113Z,7.20
2022-11-15T03:27:26.094Z,7.50
2022-11-15T03:28:26.096Z,6.80
2022-11-15T03:29:26.064Z,6.40
2022-11-15T03:30:26.064Z,6.60
2022-11-15T03:31:26.043Z,6.90
2022-11-15T03:32:26.037Z,6.40
2022-11-15T03:33:26.005Z,6.20
2022-11-15T03:34:26.016Z,6.90
2022-11-15T03:35:25.994Z,6.80
2022-11-15T03:36:25.995Z,7.10
2022-11-15T03:37:25.985Z,6.70
2022-11-15T03:38:26.056Z,6.70
2022-11-15T03:39:25.944Z,6.70
2022-11-15T03:40:25.993Z,6.70
2022-11-15T03:41:25.935Z,6.90
2022-11-15T03:42:25.933Z,6.20
2022-11-15T03:43:25.903Z,6.20
2022-11-15T03:44:25.913Z,6.70
2022-11-15T03:45:25.873Z,6.40
2022-11-15T03:46:25.874Z,6.10
2022-11-15T03:47:25.864Z,6.80
2022-11-15T03:48:25.905Z,6.50
2022-11-15T03:49:25.834Z,6.30
2022-11-15T03:50:25.837Z,6.50
2022-11-15T03:51:25.810Z,6.40
2022-11-15T03:52:25.805Z,6.60
2022-11-15T03:53:25.784Z,6.80
2022-11-15T03:54:25.810Z,6.40
2022-11-15T03:55:25.765Z,6.00
2022-11-15T03:56:25.762Z,6.10
2022-11-15T03:57:25.744Z,5.80
2022-11-15T03:58:25.737Z,5.70
2022-11-15T03:59:25.713Z,5.60
2022-11-15T04:00:25.716Z,5.50
2022-11-15T04:01:25.798Z,5.60
2022-11-15T04:02:25.695Z,5.50
2022-11-15T04:03:25.665Z,6.00
2022-11-15T04:04:25.666Z,6.20
2022-11-15T04:05:25.645Z,5.50
2022-11-15T04:06:25.644Z,6.50
2022-11-15T04:07:25.720Z,5.80
2022-11-15T04:08:25.626Z,5.60
2022-11-15T04:09:25.614Z,5.60
2022-11-15T04:10:25.614Z,5.10
2022-11-15T04:11:25.573Z,5.00
2022-11-15T04:12:25.575Z,5.60
2022-11-15T04:13:25.552Z,5.90
2022-11-15T04:14:25.554Z,5.20
2022-11-15T04:15:25.524Z,5.30
2022-11-15T04:16:25.534Z,5.30
2022-11-15T04:17:25.504Z,5.60
2022-11-15T04:18:25.517Z,4.80
2022-11-15T04:19:25.484Z,5.40
2022-11-15T04:20:25.492Z,5.00
2022-11-15T04:21:25.463Z,5.10
2022-11-15T04:22:25.464Z,5.00
2022-11-15T04:23:25.435Z,5.10
2022-11-15T04:24:25.439Z,5.40
2022-11-15T04:25:29.684Z,5.80
2022-11-15T04:26:26.414Z,5.80
2022-11-15T04:27:25.408Z,5.70
2022-11-15T04:28:25.394Z,5.50
2022-11-15T04:29:25.372Z,5.90
2022-11-15T04:30:25.364Z,4.60
2022-11-15T04:31:25.343Z,4.70
2022-11-15T04:32:25.343Z,5.10
2022-11-15T04:33:25.323Z,5.00
2022-11-15T04:34:25.332Z,5.20
2022-11-15T04:35:25.303Z,4.60
2022-11-15T04:36:25.303Z,4.90
2022-11-15T04:37:25.273Z,5.00
2022-11-15T04:38:25.283Z,4.70
2022-11-15T04:39:25.252Z,5.60
2022-11-15T04:40:25.254Z,5.30
2022-11-15T04:41:25.503Z,5.40
2022-11-15T04:42:25.258Z,4.80
2022-11-15T04:43:25.205Z,4.70
2022-11-15T04:44:25.207Z,5.00
2022-11-15T04:45:25.182Z,5.10
2022-11-15T04:46:25.182Z,4.70
2022-11-15T04:47:25.173Z,5.20
2022-11-15T04:48:25.161Z,5.10
2022-11-15T04:49:25.132Z,5.00
2022-11-15T04:50:25.147Z,5.10
2022-11-15T04:51:25.123Z,4.80
2022-11-15T04:52:25.124Z,4.70
2022-11-15T04:53:25.092Z,4.80
2022-11-15T04:54:25.093Z,4.90
2022-11-15T04:55:25.064Z,5.20
2022-11-15T04:56:25.067Z,4.30
2022-11-15T04:57:25.052Z,4.90
2022-11-15T04:58:25.053Z,4.90
2022-11-15T04:59:25.028Z,4.60
2022-11-15T05:00:25.011Z,4.30
2022-11-15T05:01:25.021Z,4.90
2022-11-15T05:02:25.004Z,4.90
2022-11-15T05:03:24.982Z,4.60
2022-11-15T05:04:24.980Z,4.40
2022-11-15T05:05:24.953Z,4.40
2022-11-15T05:06:24.951Z,4.30
2022-11-15T05:07:25.045Z,4.80
2022-11-15T05:08:24.931Z,4.50
2022-11-15T05:09:24.916Z,4.50
2022-11-15T05:10:24.915Z,4.60
2022-11-15T05:11:24.882Z,4.20
2022-11-15T05:12:24.881Z,4.70
2022-11-15T05:13:24.901Z,4.30
2022-11-15T05:14:24.863Z,4.30
2022-11-15T05:15:24.830Z,4.30
2022-11-15T05:16:24.833Z,4.00
2022-11-15T05:17:24.810Z,4.00
2022-11-15T05:18:24.812Z,4.50
2022-11-15T05:19:25.060Z,4.30
2022-11-15T05:20:24.814Z,4.20
2022-11-15T05:21:24.780Z,3.40
2022-11-15T05:22:24.761Z,4.60
2022-11-15T05:23:24.750Z,4.10
2022-11-15T05:24:24.761Z,4.50
2022-11-15T05:25:24.725Z,3.70
2022-11-15T05:26:24.725Z,4.00
2022-11-15T05:27:24.690Z,4.20
2022-11-15T05:28:24.690Z,4.40
2022-11-15T05:29:25.584Z,3.90
2022-11-15T05:30:24.679Z,4.10
2022-11-15T05:31:24.685Z,3.80
2022-11-15T05:32:24.652Z,4.50
2022-11-15T05:33:24.620Z,4.40
2022-11-15T05:34:24.630Z,4.30
2022-11-15T05:35:24.611Z,3.70
2022-11-15T05:36:24.599Z,3.90
2022-11-15T05:37:24.580Z,4.10
2022-11-15T05:38:24.596Z,3.90
2022-11-15T05:39:24.559Z,4.20
2022-11-15T05:40:24.560Z,4.30
2022-11-15T05:41:24.539Z,4.30
2022-11-15T05:42:24.540Z,5.30
2022-11-15T05:43:24.509Z,4.60
2022-11-15T05:44:24.521Z,4.30
2022-11-15T05:45:27.072Z,4.40
2022-11-15T05:46:24.500Z,4.00
2022-11-15T05:47:24.460Z,4.00
2022-11-15T05:48:24.473Z,4.30
2022-11-15T05:49:24.440Z,4.40
2022-11-15T05:50:24.448Z,4.20
2022-11-15T05:51:24.421Z,4.10
2022-11-15T05:52:24.430Z,3.70
2022-11-15T05:53:24.391Z,4.10
2022-11-15T05:54:24.412Z,4.10
2022-11-15T05:55:24.389Z,4.30
2022-11-15T05:56:24.400Z,4.20
2022-11-15T05:57:24.362Z,3.80
2022-11-15T05:58:24.368Z,3.60
2022-11-15T05:59:24.343Z,3.90
2022-11-15T06:00:24.330Z,4.60
2022-11-15T06:01:24.316Z,3.70
2022-11-15T06:02:24.393Z,4.40
2022-11-15T06:03:24.299Z,4.10
2022-11-15T06:04:24.550Z,4.00
2022-11-15T06:05:24.259Z,4.00
2022-11-15T06:06:33.533Z,3.80
2022-11-15T06:07:24.290Z,3.50
2022-11-15T06:08:24.241Z,3.80
2022-11-15T06:09:24.212Z,3.80
2022-11-15T06:10:24.217Z,3.90
2022-11-15T06:11:24.221Z,3.50
2022-11-15T06:12:24.193Z,4.10
2022-11-15T06:13:24.171Z,3.40
2022-11-15T06:14:24.181Z,3.10
2022-11-15T06:15:24.143Z,3.50
2022-11-15T06:16:24.144Z,3.50
2022-11-15T06:17:24.327Z,3.30
2022-11-15T06:18:24.122Z,3.00
2022-11-15T06:19:24.154Z,3.30
2022-11-15T06:20:24.115Z,2.90
2022-11-15T06:21:24.072Z,2.80
2022-11-15T06:22:24.092Z,2.70
2022-11-15T06:23:26.255Z,2.80
2022-11-15T06:24:24.800Z,3.10
2022-11-15T06:25:24.953Z,3.10
2022-11-15T06:26:24.056Z,3.00
2022-11-15T06:27:24.028Z,2.70
2022-11-15T06:28:24.024Z,2.90
2022-11-15T06:29:23.985Z,2.60
2022-11-15T06:30:23.982Z,2.60
2022-11-15T06:31:23.973Z,2.40
2022-11-15T06:32:23.971Z,2.90
2022-11-15T06:33:23.963Z,2.90
2022-11-15T06:34:23.968Z,3.30
2022-11-15T06:35:23.962Z,3.00
2022-11-15T06:36:23.940Z,2.50
2022-11-15T06:37:23.893Z,2.60
2022-11-15T06:38:23.905Z,2.60
2022-11-15T06:39:23.883Z,2.60
2022-11-15T06:40:23.872Z,2.50
2022-11-15T06:41:23.850Z,2.80
2022-11-15T06:42:23.851Z,2.60
2022-11-15T06:43:23.880Z,2.80
2022-11-15T06:44:23.844Z,2.60
2022-11-15T06:45:23.953Z,2.80
2022-11-15T06:46:23.812Z,3.00
2022-11-15T06:47:23.784Z,2.40
2022-11-15T06:48:23.792Z,2.40
2022-11-15T06:49:23.784Z,2.70
2022-11-15T06:50:23.760Z,2.40
2022-11-15T06:51:23.731Z,2.50
2022-11-15T06:52:23.822Z,2.60
2022-11-15T06:53:23.700Z,2.50
2022-11-15T06:54:23.723Z,2.60
2022-11-15T06:55:23.694Z,2.70
2022-11-15T06:56:23.691Z,2.60
2022-11-15T06:57:23.665Z,2.60
2022-11-15T06:58:23.693Z,2.80
2022-11-15T06:59:23.658Z,2.90
2022-11-15T07:00:23.961Z,3.00
2022-11-15T07:01:23.664Z,2.50
2022-11-15T07:02:23.621Z,3.40
2022-11-15T07:03:23.592Z,2.60
2022-11-15T07:04:23.699Z,2.80
2022-11-15T07:05:23.607Z,3.00
2022-11-15T07:06:23.614Z,2.50
2022-11-15T07:07:23.601Z,2.40
2022-11-15T07:08:23.553Z,2.50
2022-11-15T07:09:23.582Z,2.90
2022-11-15T07:10:23.561Z,2.80
2022-11-15T07:11:23.515Z,2.80
2022-11-15T07:12:23.533Z,2.90
2022-11-15T07:13:23.495Z,2.60
2022-11-15T07:14:23.644Z,3.00
2022-11-15T07:15:23.491Z,2.80
2022-11-15T07:16:23.478Z,2.90
2022-11-15T07:17:23.439Z,3.00
2022-11-15T07:18:23.438Z,3.20
2022-11-15T07:19:23.416Z,3.10
2022-11-15T07:20:23.471Z,2.90
2022-11-15T07:21:27.420Z,2.70
2022-11-15T07:22:23.410Z,2.80
2022-11-15T07:23:23.364Z,2.70
2022-11-15T07:24:23.387Z,2.80
2022-11-15T07:25:24.311Z,2.70
2022-11-15T07:26:24.096Z,2.70
2022-11-15T07:27:23.375Z,2.90
2022-11-15T07:28:23.341Z,2.90
2022-11-15T07:29:24.180Z,2.60
2022-11-15T07:30:24.100Z,2.30
2022-11-15T07:31:23.314Z,2.40
2022-11-15T07:32:23.319Z,2.60
2022-11-15T07:33:23.313Z,2.50
2022-11-15T07:34:24.218Z,3.00
2022-11-15T07:35:24.120Z,2.80
2022-11-15T07:36:24.022Z,2.40
2022-11-15T07:37:24.065Z,2.80
2022-11-15T07:38:23.967Z,2.20
2022-11-15T07:39:23.234Z,2.60
2022-11-15T07:40:23.410Z,2.40
2022-11-15T07:41:23.745Z,2.60
2022-11-15T07:42:23.209Z,2.90
2022-11-15T07:43:23.320Z,2.40
2022-11-15T07:44:23.131Z,2.60
2022-11-15T07:45:23.124Z,2.50
2022-11-15T07:46:23.131Z,2.80
2022-11-15T07:47:23.878Z,2.70
2022-11-15T07:48:23.100Z,2.60
2022-11-15T07:49:23.100Z,2.60
2022-11-15T07:50:23.062Z,2.60
2022-11-15T07:51:23.050Z,2.50
2022-11-15T07:52:23.042Z,2.50
2022-11-15T07:53:23.111Z,2.60
2022-11-15T07:54:23.062Z,2.80
2022-11-15T07:55:23.038Z,2.70
2022-11-15T07:56:23.118Z,2.90
2022-11-15T07:57:22.988Z,3.30
2022-11-15T07:58:23.121Z,2.80
2022-11-15T07:59:23.040Z,2.50
2022-11-15T08:00:22.979Z,2.90
2022-11-15T08:01:23.046Z,3.00
2022-11-15T08:02:27.633Z,2.40
2022-11-15T08:03:23.956Z,2.90
2022-11-15T08:04:22.919Z,2.90
2022-11-15T08:05:22.899Z,2.80
2022-11-15T08:06:22.969Z,3.10
2022-11-15T08:07:23.077Z,2.80
2022-11-15T08:08:22.863Z,3.30
2022-11-15T08:09:22.876Z,3.10
2022-11-15T08:10:22.830Z,3.10
2022-11-15T08:11:22.827Z,2.90
2022-11-15T08:12:22.905Z,2.80
2022-11-15T08:13:22.839Z,3.20
2022-11-15T08:14:22.791Z,3.20
2022-11-15T08:15:22.801Z,3.40
2022-11-15T08:16:22.776Z,3.10
2022-11-15T08:17:22.758Z,3.10
2022-11-15T08:18:22.740Z,3.00
2022-11-15T08:19:22.739Z,2.80
2022-11-15T08:20:23.217Z,2.80
2022-11-15T08:21:22.730Z,3.40
2022-11-15T08:22:22.689Z,2.90
2022-11-15T08:23:22.701Z,3.20
2022-11-15T08:24:22.665Z,3.10
2022-11-15T08:25:22.931Z,3.40
2022-11-15T08:26:22.655Z,3.20
2022-11-15T08:27:22.798Z,3.10
2022-11-15T08:28:23.011Z,3.30
2022-11-15T08:29:22.629Z,3.20
2022-11-15T08:30:22.647Z,2.80
2022-11-15T08:31:23.133Z,2.90
2022-11-15T08:32:22.581Z,2.80
2022-11-15T08:33:22.609Z,3.20
2022-11-15T08:34:22.552Z,3.60
2022-11-15T08:35:26.286Z,3.30
2022-11-15T08:36:23.558Z,3.20
2022-11-15T08:37:22.538Z,3.90
2022-11-15T08:38:22.508Z,3.50
2022-11-15T08:39:22.521Z,3.80
2022-11-15T08:40:22.479Z,3.70
2022-11-15T08:41:22.509Z,3.20
2022-11-15T08:42:22.551Z,3.30
2022-11-15T08:43:22.468Z,3.30
2022-11-15T08:44:22.439Z,3.00
2022-11-15T08:45:22.443Z,3.10
2022-11-15T08:46:22.436Z,3.00
2022-11-15T08:47:23.236Z,2.80
2022-11-15T08:48:22.641Z,3.10
2022-11-15T08:49:22.438Z,3.30
2022-11-15T08:50:22.383Z,3.00
2022-11-15T08:51:22.384Z,3.00
2022-11-15T08:52:22.363Z,2.80
2022-11-15T08:53:22.361Z,2.70
2022-11-15T08:54:22.341Z,2.80
2022-11-15T08:55:24.857Z,2.80
2022-11-15T08:56:22.308Z,2.70
2022-11-15T08:57:22.366Z,2.40
2022-11-15T08:58:22.294Z,2.60
2022-11-15T08:59:22.301Z,2.30
2022-11-15T09:00:22.409Z,2.80
2022-11-15T09:01:22.313Z,2.60
2022-11-15T09:02:22.239Z,2.40
2022-11-15T09:03:22.276Z,2.50
2022-11-15T09:04:22.230Z,2.20
2022-11-15T09:05:22.233Z,2.60
2022-11-15T09:06:22.203Z,2.60
2022-11-15T09:07:22.264Z,2.20
2022-11-15T09:09:23.197Z,2.20
2022-11-15T09:10:22.188Z,2.30
2022-11-15T09:11:22.212Z,2.20
2022-11-15T09:12:22.149Z,2.40
2022-11-15T09:13:22.162Z,2.70
2022-11-15T09:14:22.180Z,2.30
2022-11-15T09:15:22.212Z,2.30
2022-11-15T09:16:22.087Z,2.40
2022-11-15T09:17:25.055Z,2.60
2022-11-15T09:18:22.479Z,2.30
2022-11-15T09:19:22.080Z,2.40
2022-11-15T09:20:22.063Z,2.20
2022-11-15T09:21:22.059Z,2.10
2022-11-15T09:22:22.038Z,1.90
2022-11-15T09:23:22.030Z,2.10
2022-11-15T09:24:22.019Z,2.20
2022-11-15T09:25:22.019Z,2.30
2022-11-15T09:26:21.998Z,1.90
2022-11-15T09:27:21.987Z,2.20
2022-11-15T09:28:21.973Z,2.00
2022-11-15T09:29:21.991Z,2.10
2022-11-15T09:30:22.020Z,1.90
2022-11-15T09:31:22.451Z,1.60
2022-11-15T09:32:21.932Z,1.80
2022-11-15T09:33:21.915Z,1.80
2022-11-15T09:34:21.902Z,2.00
2022-11-15T09:35:21.904Z,1.90
2022-11-15T09:36:21.872Z,1.80
2022-11-15T09:37:21.889Z,1.80
2022-11-15T09:38:21.861Z,1.80
2022-11-15T09:39:21.854Z,2.00
2022-11-15T09:40:21.875Z,2.10
2022-11-15T09:41:21.871Z,2.10
2022-11-15T09:42:21.810Z,2.20
2022-11-15T09:43:21.808Z,2.30
2022-11-15T09:44:25.499Z,1.90
2022-11-15T09:45:21.787Z,1.70
2022-11-15T09:46:21.760Z,1.90
2022-11-15T09:47:21.760Z,2.10
2022-11-15T09:48:21.760Z,2.00
2022-11-15T09:49:22.031Z,1.90
2022-11-15T09:50:22.036Z,1.90
2022-11-15T09:51:21.752Z,2.00
2022-11-15T09:52:21.728Z,1.60
2022-11-15T09:53:41.520Z,1.70
2022-11-15T09:55:22.668Z,2.10
2022-11-15T09:56:21.640Z,1.60
2022-11-15T09:57:21.659Z,1.80
2022-11-15T09:58:21.643Z,1.80
2022-11-15T09:59:21.643Z,2.00
2022-11-15T10:00:45.176Z,2.00
2022-11-15T10:01:22.666Z,1.70
2022-11-15T10:02:21.615Z,2.00
2022-11-15T10:03:21.600Z,1.80
2022-11-15T10:04:21.560Z,1.60
2022-11-15T10:05:21.574Z,1.80
2022-11-15T10:06:21.538Z,1.90
2022-11-15T10:07:21.627Z,1.60
2022-11-15T10:08:21.510Z,1.90
2022-11-15T10:09:23.951Z,2.20
2022-11-15T10:10:21.516Z,2.30
2022-11-15T10:11:38.613Z,1.70
2022-11-15T10:12:22.480Z,1.80
2022-11-15T10:13:21.477Z,2.00
2022-11-15T10:14:21.458Z,2.10
2022-11-15T10:15:21.490Z,2.10
2022-11-15T10:16:21.428Z,2.00
2022-11-15T10:17:21.428Z,2.10
2022-11-15T10:18:21.398Z,1.80
2022-11-15T10:19:21.411Z,2.00
2022-11-15T10:20:21.395Z,2.10
2022-11-15T10:21:21.389Z,1.70
2022-11-15T10:22:21.382Z,2.00
2022-11-15T10:23:21.360Z,2.00
2022-11-15T10:24:21.348Z,2.00
2022-11-15T10:25:21.347Z,1.60
2022-11-15T10:26:21.318Z,1.90
2022-11-15T10:27:21.322Z,1.90
2022-11-15T10:28:21.287Z,1.70
2022-11-15T10:29:26.438Z,1.90
2022-11-15T10:30:23.071Z,2.10
2022-11-15T10:31:21.516Z,1.70
2022-11-15T10:32:21.281Z,1.30
2022-11-15T10:33:21.279Z,1.70
2022-11-15T10:34:21.233Z,1.60
2022-11-15T10:35:21.227Z,1.60
2022-11-15T10:36:21.230Z,1.70
2022-11-15T10:37:21.244Z,1.40
2022-11-15T10:38:21.179Z,1.70
2022-11-15T10:39:21.186Z,1.40
2022-11-15T10:40:21.160Z,1.60
2022-11-15T10:41:21.183Z,1.50
2022-11-15T10:42:21.138Z,1.80
2022-11-15T10:43:21.144Z,1.50
2022-11-15T10:44:21.120Z,1.60
2022-11-15T10:45:21.254Z,1.70
2022-11-15T10:46:45.115Z,1.80
2022-11-15T10:47:22.099Z,1.50
2022-11-15T10:48:21.092Z,1.70
2022-11-15T10:49:21.081Z,1.70
2022-11-15T10:50:21.310Z,1.20
2022-11-15T10:51:21.417Z,1.60
2022-11-15T10:52:21.068Z,1.70
2022-11-15T10:53:21.027Z,1.70
2022-11-15T10:54:21.239Z,1.70
2022-11-15T10:55:20.998Z,1.90
2022-11-15T10:56:21.102Z,2.00
2022-11-15T10:57:20.973Z,1.70
2022-11-15T10:58:20.966Z,1.80
2022-11-15T10:59:20.962Z,1.50
2022-11-15T11:00:20.929Z,1.40
2022-11-15T11:01:21.141Z,1.50
2022-11-15T11:02:20.913Z,1.60
2022-11-15T11:03:20.909Z,1.70
2022-11-15T11:04:20.877Z,1.70
2022-11-15T11:05:20.908Z,1.50
2022-11-15T11:06:20.860Z,1.60
2022-11-15T11:07:20.922Z,1.80
2022-11-15T11:08:20.830Z,1.90
2022-11-15T11:09:20.891Z,1.50
2022-11-15T11:10:51.134Z,1.70
2022-11-15T11:11:21.823Z,1.90
2022-11-15T11:12:20.798Z,1.70
2022-11-15T11:13:20.810Z,1.80
2022-11-15T11:14:20.860Z,1.70
2022-11-15T11:15:20.771Z,1.70
2022-11-15T11:16:20.755Z,1.80
2022-11-15T11:17:20.748Z,1.80
2022-11-15T11:18:20.749Z,1.80
2022-11-15T11:19:20.754Z,1.70
2022-11-15T11:20:20.700Z,1.70
2022-11-15T11:21:22.647Z,1.60
2022-11-15T11:22:20.691Z,1.80
2022-11-15T11:23:20.670Z,1.70
2022-11-15T11:24:20.648Z,1.50
2022-11-15T11:25:20.698Z,1.40
2022-11-15T11:26:20.633Z,1.30
2022-11-15T11:27:20.618Z,1.60
2022-11-15T11:28:20.589Z,1.50
2022-11-15T11:29:20.597Z,1.40
2022-11-15T11:30:20.638Z,1.50
2022-11-15T11:31:20.601Z,1.50
2022-11-15T11:32:21.187Z,1.50
2022-11-15T11:33:20.546Z,1.70
2022-11-15T11:34:20.530Z,1.40
2022-11-15T11:35:20.543Z,1.80
2022-11-15T11:36:20.507Z,1.60
2022-11-15T11:37:20.511Z,1.50
2022-11-15T11:38:20.509Z,1.50
2022-11-15T11:39:20.483Z,1.50
2022-11-15T11:40:20.457Z,1.50
2022-11-15T11:41:20.481Z,1.50
2022-11-15T11:42:20.467Z,1.70
2022-11-15T11:43:20.442Z,1.60
2022-11-15T11:44:20.475Z,1.50
2022-11-15T11:45:20.417Z,1.40
2022-11-15T11:46:21.119Z,1.40
2022-11-15T11:47:20.389Z,1.40
2022-11-15T11:48:20.377Z,1.40
2022-11-15T11:49:20.382Z,1.50
2022-11-15T11:50:20.358Z,1.40
2022-11-15T11:51:20.330Z,1.50
2022-11-15T11:52:20.874Z,1.70
2022-11-15T11:53:20.346Z,1.70
2022-11-15T11:54:20.340Z,1.90
2022-11-15T11:55:20.288Z,1.70
2022-11-15T11:56:20.288Z,2.00
2022-11-15T11:57:20.471Z,1.80
2022-11-15T11:58:20.300Z,1.60
2022-11-15T11:59:20.437Z,1.50
2022-11-15T12:00:20.231Z,1.50
2022-11-15T12:01:20.198Z,2.00
2022-11-15T12:02:20.323Z,1.60
2022-11-15T12:03:20.222Z,1.40
2022-11-15T12:04:20.194Z,1.50
2022-11-15T12:05:20.327Z,2.20
2022-11-15T12:06:20.168Z,1.70
2022-11-15T12:07:20.174Z,1.70
2022-11-15T12:08:20.132Z,1.40
2022-11-15T12:09:20.141Z,1.50
2022-11-15T12:10:20.130Z,1.60
2022-11-15T12:11:20.087Z,1.80
2022-11-15T12:12:21.037Z,1.40
2022-11-15T12:13:20.254Z,1.50
2022-11-15T12:14:20.098Z,1.80
2022-11-15T12:15:20.067Z,1.40
2022-11-15T12:16:20.068Z,1.40
2022-11-15T12:17:20.039Z,1.40
2022-11-15T12:18:20.026Z,1.40
2022-11-15T12:19:20.007Z,1.50
2022-11-15T12:20:20.128Z,1.30
2022-11-15T12:21:23.980Z,1.20
2022-11-15T12:22:21.123Z,1.10
2022-11-15T12:23:20.685Z,1.50
2022-11-15T12:24:19.947Z,1.40
2022-11-15T12:25:19.928Z,1.60
2022-11-15T12:26:19.971Z,1.30
2022-11-15T12:27:26.078Z,1.40
2022-11-15T12:28:20.940Z,1.90
2022-11-15T12:29:19.881Z,2.00
2022-11-15T12:30:19.904Z,1.60
2022-11-15T12:31:19.962Z,1.70
2022-11-15T12:32:20.052Z,1.20
2022-11-15T12:33:20.044Z,1.60
2022-11-15T12:34:19.894Z,1.30
2022-11-15T12:35:19.859Z,1.50
2022-11-15T12:36:19.835Z,1.50
2022-11-15T12:37:19.818Z,1.50
2022-11-15T12:38:20.088Z,1.30
2022-11-15T12:39:19.779Z,1.30
2022-11-15T12:40:19.775Z,1.30
2022-11-15T12:41:19.789Z,1.40
2022-11-15T12:42:19.769Z,1.30
2022-11-15T12:43:19.719Z,1.30
2022-11-15T12:44:19.759Z,1.40
2022-11-15T12:45:19.698Z,1.70
2022-11-15T12:46:19.978Z,1.30
2022-11-15T12:47:23.175Z,1.30
2022-11-15T12:48:19.679Z,1.40
2022-11-15T12:49:19.684Z,1.50
2022-11-15T12:50:19.689Z,0.90
2022-11-15T12:51:19.659Z,1.40
2022-11-15T12:52:19.705Z,1.30
2022-11-15T12:53:19.791Z,1.50
2022-11-15T12:54:19.889Z,1.30
2022-11-15T12:55:19.850Z,1.50
2022-11-15T12:56:19.669Z,1.40
2022-11-15T12:57:19.666Z,1.20
2022-11-15T12:58:19.642Z,1.40
2022-11-15T12:59:19.715Z,1.40
2022-11-15T13:00:24.128Z,1.40
2022-11-15T13:01:20.595Z,1.20
2022-11-15T13:02:19.537Z,1.10
2022-11-15T13:03:19.484Z,1.20
2022-11-15T13:04:19.529Z,1.50
2022-11-15T13:05:19.763Z,1.20
2022-11-15T13:06:19.509Z,1.50
2022-11-15T13:07:19.498Z,1.20
2022-11-15T13:08:19.455Z,1.10
2022-11-15T13:09:19.438Z,1.10
2022-11-15T13:10:20.735Z,1.20
2022-11-15T13:11:19.419Z,1.20
2022-11-15T13:12:19.391Z,1.20
2022-11-15T13:13:19.390Z,1.20
2022-11-15T13:14:19.379Z,1.20
2022-11-15T13:15:19.826Z,1.00
2022-11-15T13:16:19.369Z,1.20
2022-11-15T13:17:19.317Z,1.00
2022-11-15T13:18:19.310Z,1.10